EFKI

Kajaani Airport

Kajaani, Finland
METAR EFKI 181420Z AUTO 21006KT 150V270 9999 SCT049 21/12 Q1009
Observed Flight Rules
Aug-18 @ 14:20 UTC (33 minutes ago) Visual Flight Rules
Wind Visibility Clouds
210° at 6 knots 10,000+ meters
  • Scattered at 4,900' AGL
Temperatures Readings
Current 21°C / 70°F
Dewpoint 12°C / 54°F
Humidity 57%
Altimeter 29.79" Hg
Pressure 1009 hPa
Elevation 136
METAR EFKI 181420Z AUTO 21006KT 150V270 9999 SCT049 21/12 Q1009
Observed Flight Rules
Aug-18 @ 14:20 UTC
(33 minutes ago)
VFR
Wind Visibility
210° at 6 knots 10,000+ meters
Clouds
  • Scattered at 4,900' AGL
Temperature Dewpoint
21°C / 70°F 12°C / 54°F
Humidity Altimeter Pressure
57% 29.79" Hg 1009 hPa